Time;durP1;ratioP1;P1;durP2;ratioP2;P2;SDS_P1;SDS_P2;PMS_P1;PMS_P2;Temp;Humidity;BMP_temperature;BMP_pressure;BME280_temperature;BME280_humidity;BME280_pressure;Samples;Min_cycle;Max_cycle;Signal;HPM_P1;HPM_P2
2020/12/18 00:01:36;;;;;;;9.07;5.47;;;8.50;91.40;;;;;;5037021;28;20933;-72
2020/12/18 00:04:02;;;;;;;6.90;4.87;;;8.50;91.40;;;;;;5037061;28;20454;-72
2020/12/18 00:06:35;;;;;;;7.43;4.50;;;8.50;91.50;;;;;;5037074;28;20473;-72
2020/12/18 00:09:01;;;;;;;14.07;5.10;;;8.40;91.50;;;;;;5037100;28;20438;-72
2020/12/18 00:11:28;;;;;;;10.97;5.17;;;8.40;91.60;;;;;;5037208;28;20446;-72
2020/12/18 00:13:55;;;;;;;9.93;4.47;;;8.40;91.60;;;;;;5037215;28;20450;-72
2020/12/18 00:16:22;;;;;;;7.27;4.27;;;8.40;91.60;;;;;;5036856;28;20450;-72
2020/12/18 00:18:48;;;;;;;10.13;4.70;;;8.40;91.60;;;;;;5037041;28;20544;-72
2020/12/18 00:21:17;;;;;;;9.60;3.90;;;8.50;91.60;;;;;;5036936;28;20471;-71
2020/12/18 00:23:44;;;;;;;7.60;4.20;;;8.40;91.60;;;;;;5036875;28;20555;-71
2020/12/18 00:26:10;;;;;;;7.97;4.73;;;8.40;91.70;;;;;;5037629;28;20480;-71
2020/12/18 00:28:36;;;;;;;6.70;3.90;;;8.40;91.60;;;;;;5036968;28;20446;-72
2020/12/18 00:31:03;;;;;;;10.07;4.10;;;8.40;91.60;;;;;;5036449;28;20931;-72
2020/12/18 00:33:29;;;;;;;10.17;4.50;;;8.40;91.60;;;;;;5036781;28;20468;-71
2020/12/18 00:35:55;;;;;;;7.10;4.03;;;8.40;91.60;;;;;;5036391;28;20481;-71
2020/12/18 00:38:22;;;;;;;5.83;4.33;;;8.40;91.50;;;;;;5036420;28;20489;-71
2020/12/18 00:40:49;;;;;;;5.93;3.93;;;8.40;91.50;;;;;;5036446;28;20466;-71
2020/12/18 00:43:15;;;;;;;6.20;4.40;;;8.50;91.50;;;;;;5036484;28;20446;-71
2020/12/18 00:45:42;;;;;;;6.97;3.20;;;8.40;91.40;;;;;;5036388;28;20453;-71
2020/12/18 00:48:08;;;;;;;7.30;4.60;;;8.40;91.40;;;;;;5034780;28;21026;-72
2020/12/18 00:50:35;;;;;;;6.97;3.70;;;8.50;91.50;;;;;;5036276;28;20477;-71
2020/12/18 00:53:01;;;;;;;6.60;3.43;;;8.50;91.40;;;;;;5036331;28;20832;-71
2020/12/18 00:55:28;;;;;;;4.17;3.50;;;8.50;91.40;;;;;;5036474;28;20443;-71
2020/12/18 00:57:55;;;;;;;10.73;4.37;;;8.50;91.40;;;;;;5036123;28;20928;-71
2020/12/18 01:00:21;;;;;;;7.83;3.67;;;8.50;91.40;;;;;;5036211;28;20478;-71
2020/12/18 01:02:47;;;;;;;4.93;3.40;;;8.50;91.30;;;;;;5036024;28;20453;-71
2020/12/18 01:05:13;;;;;;;6.63;3.83;;;8.40;91.30;;;;;;5036069;28;20456;-71
2020/12/18 01:07:40;;;;;;;6.27;3.80;;;8.40;91.40;;;;;;5035870;28;20878;-71
2020/12/18 01:10:06;;;;;;;4.60;3.20;;;8.40;91.40;;;;;;5035905;28;20461;-71
2020/12/18 01:12:32;;;;;;;8.60;3.93;;;8.40;91.40;;;;;;5036136;28;20472;-71
2020/12/18 01:14:59;;;;;;;4.87;3.87;;;8.40;91.40;;;;;;5035566;28;20454;-71
2020/12/18 01:17:25;;;;;;;5.97;4.10;;;8.40;91.40;;;;;;5035953;28;20882;-71
2020/12/18 01:19:52;;;;;;;5.90;3.70;;;8.40;91.40;;;;;;5036031;28;20462;-71
2020/12/18 01:22:18;;;;;;;8.73;4.17;;;8.30;91.20;;;;;;5035681;28;20453;-71
2020/12/18 01:24:44;;;;;;;7.47;3.93;;;8.30;91.40;;;;;;5035600;28;20443;-71
2020/12/18 01:27:10;;;;;;;6.83;4.07;;;8.30;91.40;;;;;;5035621;28;20503;-71
2020/12/18 01:29:36;;;;;;;9.90;4.50;;;8.30;91.40;;;;;;5035464;28;20466;-71
2020/12/18 01:32:03;;;;;;;4.60;3.80;;;8.30;91.40;;;;;;5035218;28;20810;-71
2020/12/18 01:34:30;;;;;;;7.00;4.13;;;8.20;91.40;;;;;;5035720;28;20476;-71
2020/12/18 01:36:56;;;;;;;8.57;3.70;;;8.20;91.50;;;;;;5034926;28;20966;-71
2020/12/18 01:39:22;;;;;;;10.33;3.73;;;8.20;91.90;;;;;;5035327;28;20470;-71
2020/12/18 01:41:48;;;;;;;7.90;4.23;;;8.20;91.50;;;;;;5035315;28;20816;-71
2020/12/18 01:44:15;;;;;;;5.60;3.50;;;8.20;91.60;;;;;;5035530;28;20443;-71
2020/12/18 01:46:41;;;;;;;6.67;3.23;;;8.10;91.80;;;;;;5034876;28;20959;-71
2020/12/18 01:49:08;;;;;;;5.70;3.63;;;8.10;91.80;;;;;;5035125;28;20449;-71
2020/12/18 01:51:34;;;;;;;4.40;3.43;;;8.10;91.80;;;;;;5035130;28;20449;-71
2020/12/18 01:54:01;;;;;;;5.00;3.80;;;8.10;91.90;;;;;;5035048;28;20446;-71
2020/12/18 01:56:28;;;;;;;7.20;3.80;;;8.10;91.90;;;;;;5034971;28;20497;-71
2020/12/18 01:58:54;;;;;;;4.93;3.00;;;8.10;91.90;;;;;;5034728;28;20446;-71
2020/12/18 02:01:21;;;;;;;4.53;3.53;;;8.10;92.00;;;;;;5034954;28;20465;-71
2020/12/18 02:03:47;;;;;;;5.03;3.70;;;8.10;92.00;;;;;;5034935;28;20474;-71
2020/12/18 02:06:16;;;;;;;5.93;4.13;;;8.10;92.00;;;;;;5034913;28;20442;-71
2020/12/18 02:08:45;;;;;;;6.63;4.50;;;8.10;92.00;;;;;;5034890;28;20446;-71
2020/12/18 02:11:12;;;;;;;5.87;3.50;;;8.10;92.00;;;;;;5034652;28;21054;-71
2020/12/18 02:13:38;;;;;;;10.73;3.83;;;8.10;92.00;;;;;;5034804;28;20986;-71
2020/12/18 02:16:04;;;;;;;12.10;3.50;;;8.10;92.00;;;;;;5034593;28;20453;-71
2020/12/18 02:18:31;;;;;;;4.03;3.40;;;8.10;91.90;;;;;;5034526;28;20489;-71
2020/12/18 02:20:58;;;;;;;6.67;3.57;;;8.10;91.90;;;;;;5034459;28;20477;-71
2020/12/18 02:23:25;;;;;;;4.93;3.23;;;8.10;91.90;;;;;;5034762;28;20472;-71
2020/12/18 02:26:04;;;;;;;3.93;3.30;;;8.10;91.90;;;;;;5034446;28;20453;-71
2020/12/18 02:28:30;;;;;;;7.20;3.70;;;8.10;91.80;;;;;;5034431;28;20429;-71
2020/12/18 02:30:56;;;;;;;6.10;3.67;;;8.10;91.80;;;;;;5034282;28;20469;-71
2020/12/18 02:33:23;;;;;;;8.17;3.63;;;8.10;91.70;;;;;;5034561;28;20449;-72
2020/12/18 02:35:49;;;;;;;5.53;2.90;;;8.10;91.80;;;;;;5034034;28;20855;-71
2020/12/18 02:38:15;;;;;;;3.63;3.33;;;8.10;91.70;;;;;;5033907;28;20478;-71
2020/12/18 02:40:41;;;;;;;6.67;3.57;;;8.10;91.80;;;;;;5034101;28;20861;-71
2020/12/18 02:43:08;;;;;;;5.03;3.13;;;8.10;91.80;;;;;;5033861;28;20447;-71
2020/12/18 02:45:34;;;;;;;4.63;2.90;;;8.10;91.70;;;;;;5034049;28;20476;-71
2020/12/18 02:48:01;;;;;;;3.47;3.17;;;8.10;91.70;;;;;;5034091;28;20473;-71
2020/12/18 02:50:27;;;;;;;9.10;3.27;;;8.10;91.60;;;;;;5034054;28;20466;-71
2020/12/18 02:52:53;;;;;;;5.13;3.10;;;8.10;91.60;;;;;;5033931;28;20446;-71
2020/12/18 02:55:19;;;;;;;6.00;3.40;;;8.10;91.60;;;;;;5034003;28;20461;-71
2020/12/18 02:57:46;;;;;;;5.63;3.43;;;8.10;91.60;;;;;;5033816;28;20478;-71
2020/12/18 03:00:13;;;;;;;4.43;3.03;;;8.10;91.50;;;;;;5033785;28;20480;-71
2020/12/18 03:02:39;;;;;;;4.67;3.20;;;8.10;91.60;;;;;;5033890;28;20458;-71
2020/12/18 03:05:06;;;;;;;5.53;3.20;;;8.10;91.50;;;;;;5034367;28;20427;-71
2020/12/18 03:07:32;;;;;;;4.00;2.90;;;8.10;91.50;;;;;;5033831;28;20449;-71
2020/12/18 03:09:58;;;;;;;3.60;2.60;;;8.10;91.50;;;;;;5032895;28;20473;-71
2020/12/18 03:12:24;;;;;;;6.13;3.07;;;8.10;91.60;;;;;;5033765;28;20446;-71
2020/12/18 03:14:50;;;;;;;5.43;2.80;;;8.10;91.60;;;;;;5033513;28;20454;-71
2020/12/18 03:17:17;;;;;;;4.23;3.80;;;8.10;91.60;;;;;;5033502;28;20482;-71
2020/12/18 03:19:44;;;;;;;4.53;3.63;;;8.10;91.60;;;;;;5033592;28;20454;-71
2020/12/18 03:22:10;;;;;;;6.37;3.63;;;8.00;91.60;;;;;;5033517;28;20449;-72
2020/12/18 03:24:36;;;;;;;3.50;2.93;;;8.00;91.70;;;;;;5033583;28;20518;-71
2020/12/18 03:27:02;;;;;;;5.00;3.00;;;8.00;91.70;;;;;;5033504;28;20437;-71
2020/12/18 03:29:28;;;;;;;5.43;2.90;;;7.90;91.70;;;;;;5033262;28;20861;-71
2020/12/18 03:31:54;;;;;;;3.43;2.87;;;7.90;91.80;;;;;;5033511;28;20449;-71
2020/12/18 03:34:21;;;;;;;7.00;3.03;;;7.90;91.80;;;;;;5033136;28;20443;-71
2020/12/18 03:36:47;;;;;;;5.90;2.70;;;8.00;91.90;;;;;;5033027;28;20452;-71
2020/12/18 03:39:14;;;;;;;3.73;2.80;;;8.00;91.90;;;;;;5033278;28;20444;-71
2020/12/18 03:41:40;;;;;;;5.83;2.93;;;8.00;91.90;;;;;;5033337;28;20484;-71
2020/12/18 03:44:06;;;;;;;6.13;3.20;;;8.00;91.80;;;;;;5033088;28;20446;-71
2020/12/18 03:46:32;;;;;;;4.77;3.13;;;8.00;91.80;;;;;;5033415;28;20524;-71
2020/12/18 03:48:58;;;;;;;5.53;3.10;;;8.00;91.80;;;;;;5033243;28;20438;-71
2020/12/18 03:51:25;;;;;;;6.63;3.33;;;8.00;91.70;;;;;;5033021;28;20447;-71
2020/12/18 03:53:52;;;;;;;5.23;2.87;;;8.00;91.70;;;;;;5033548;28;20453;-71
2020/12/18 03:56:18;;;;;;;7.37;3.20;;;8.00;91.60;;;;;;5032992;28;20446;-71
2020/12/18 03:58:44;;;;;;;4.60;2.53;;;8.10;91.60;;;;;;5033159;28;20478;-71
2020/12/18 04:01:10;;;;;;;5.67;3.30;;;8.10;91.60;;;;;;5033070;28;20466;-71
2020/12/18 04:03:36;;;;;;;4.60;2.27;;;8.10;91.60;;;;;;5033175;28;20453;-71
2020/12/18 04:06:03;;;;;;;6.83;3.33;;;8.10;91.50;;;;;;5033236;28;20442;-71
2020/12/18 04:08:30;;;;;;;3.80;2.40;;;8.10;91.40;;;;;;5032865;28;20445;-75
2020/12/18 04:10:57;;;;;;;5.30;3.13;;;8.10;91.40;;;;;;5033072;28;20470;-71
2020/12/18 04:13:23;;;;;;;5.53;2.50;;;8.10;91.40;;;;;;5033107;28;20541;-71
2020/12/18 04:15:49;;;;;;;4.40;2.90;;;8.10;91.40;;;;;;5033049;28;20789;-72
2020/12/18 04:18:15;;;;;;;3.80;2.47;;;8.10;91.40;;;;;;5033003;28;20482;-72
2020/12/18 04:20:42;;;;;;;7.67;2.70;;;8.10;91.30;;;;;;5032940;28;20477;-72
2020/12/18 04:23:09;;;;;;;2.80;2.50;;;8.10;91.30;;;;;;5036605;28;20524;-72
2020/12/18 04:25:36;;;;;;;6.10;3.73;;;8.10;91.20;;;;;;5036779;28;20453;-72
2020/12/18 04:28:02;;;;;;;4.47;3.30;;;8.00;91.10;;;;;;5036673;28;20438;-72
2020/12/18 04:30:28;;;;;;;5.83;3.50;;;8.00;91.10;;;;;;5036563;28;20466;-71
2020/12/18 04:32:54;;;;;;;4.30;3.00;;;8.00;91.00;;;;;;5036645;28;20453;-71
2020/12/18 04:35:20;;;;;;;6.20;3.40;;;8.00;90.80;;;;;;5036446;28;20450;-71
2020/12/18 04:37:47;;;;;;;3.87;3.47;;;8.00;90.70;;;;;;5036206;28;20464;-71
2020/12/18 04:40:13;;;;;;;7.57;3.80;;;8.00;90.60;;;;;;5036426;28;20466;-71
2020/12/18 04:42:40;;;;;;;7.00;4.53;;;8.00;90.40;;;;;;5036480;28;20443;-71
2020/12/18 04:45:06;;;;;;;5.60;3.70;;;8.00;90.30;;;;;;5036334;28;20469;-71
2020/12/18 04:47:40;;;;;;;4.47;3.50;;;7.90;90.20;;;;;;5036332;28;20442;-71
2020/12/18 04:50:06;;;;;;;4.30;3.90;;;7.90;90.10;;;;;;5036268;28;20497;-71
2020/12/18 04:52:32;;;;;;;7.00;4.30;;;7.90;90.00;;;;;;5035883;28;20936;-72
2020/12/18 04:55:00;;;;;;;7.10;4.10;;;7.90;90.00;;;;;;5036190;28;20854;-71
2020/12/18 04:57:28;;;;;;;7.00;4.10;;;7.90;89.80;;;;;;5036133;28;20489;-72
2020/12/18 04:59:55;;;;;;;6.43;4.20;;;7.90;89.60;;;;;;5036019;28;20470;-72
2020/12/18 05:02:23;;;;;;;4.73;4.27;;;7.90;89.50;;;;;;5036005;28;20447;-71
2020/12/18 05:04:49;;;;;;;9.17;4.90;;;7.80;89.30;;;;;;5035997;28;20442;-71
2020/12/18 05:07:15;;;;;;;6.30;4.23;;;7.80;89.10;;;;;;5036004;28;20445;-71
2020/12/18 05:09:44;;;;;;;4.60;3.80;;;7.80;89.00;;;;;;5035935;28;20466;-71
2020/12/18 05:12:10;;;;;;;6.50;4.50;;;7.70;88.80;;;;;;5035782;28;20450;-71
2020/12/18 05:14:36;;;;;;;7.20;3.73;;;7.70;88.70;;;;;;5035821;28;20451;-71
2020/12/18 05:17:08;;;;;;;16.17;4.33;;;7.70;88.80;;;;;;5035755;28;20481;-72
2020/12/18 05:19:38;;;;;;;5.67;4.07;;;7.70;88.60;;;;;;5035360;28;20992;-72
2020/12/18 05:22:06;;;;;;;7.00;4.20;;;7.70;88.50;;;;;;5035650;28;20451;-72
2020/12/18 05:24:32;;;;;;;7.33;3.70;;;7.70;88.40;;;;;;5035271;28;20811;-72
2020/12/18 05:27:00;;;;;;;6.47;4.70;;;7.60;88.40;;;;;;5035313;28;20937;-72
2020/12/18 05:29:27;;;;;;;7.47;4.17;;;7.60;88.40;;;;;;5035161;28;20462;-71
2020/12/18 05:31:55;;;;;;;10.60;5.10;;;7.60;88.40;;;;;;5035435;28;20453;-71
2020/12/18 05:34:22;;;;;;;7.90;4.10;;;7.60;88.50;;;;;;5034887;28;20470;-71
2020/12/18 05:36:49;;;;;;;6.00;4.90;;;7.50;88.30;;;;;;5035115;28;20462;-71
2020/12/18 05:39:15;;;;;;;9.07;4.60;;;7.50;88.30;;;;;;5035388;28;20521;-71
2020/12/18 05:41:44;;;;;;;11.90;5.13;;;7.50;88.30;;;;;;5035299;28;20427;-71
2020/12/18 05:44:11;;;;;;;8.83;5.33;;;7.50;89.10;;;;;;5035216;28;20450;-71
2020/12/18 05:46:39;;;;;;;9.20;5.30;;;7.40;88.20;;;;;;5034845;28;20466;-71
2020/12/18 05:49:07;;;;;;;8.00;5.70;;;7.40;88.30;;;;;;5035227;28;20478;-71
2020/12/18 05:51:36;;;;;;;8.17;5.37;;;7.40;88.40;;;;;;5035148;28;20458;-71
2020/12/18 05:54:13;;;;;;;7.93;4.90;;;7.40;88.70;;;;;;5035082;28;20450;-71
2020/12/18 05:56:40;;;;;;;7.83;4.90;;;7.40;88.90;;;;;;5034737;28;20800;-71
2020/12/18 05:59:11;;;;;;;8.97;4.60;;;7.40;88.90;;;;;;5034907;28;20481;-72
2020/12/18 06:01:42;;;;;;;6.93;5.90;;;7.40;89.00;;;;;;5034938;28;20455;-72
2020/12/18 06:04:14;;;;;;;8.33;4.50;;;7.40;88.90;;;;;;5034972;28;20484;-71
2020/12/18 06:06:43;;;;;;;7.70;4.87;;;7.30;88.80;;;;;;5035038;28;20442;-71
2020/12/18 06:09:10;;;;;;;8.60;4.17;;;7.30;88.90;;;;;;5034718;28;20837;-71
2020/12/18 06:11:37;;;;;;;9.40;5.23;;;7.30;88.70;;;;;;5034670;28;20441;-71
2020/12/18 06:14:05;;;;;;;10.37;5.40;;;7.30;88.80;;;;;;5034500;28;20453;-72
2020/12/18 06:16:31;;;;;;;5.40;4.80;;;7.30;88.80;;;;;;5034288;28;20457;-72
2020/12/18 06:19:04;;;;;;;7.33;5.40;;;7.30;88.70;;;;;;5034572;28;20478;-71
2020/12/18 06:21:30;;;;;;;7.83;4.60;;;7.30;88.80;;;;;;5034607;28;20445;-72
2020/12/18 06:23:58;;;;;;;9.73;4.80;;;7.30;88.90;;;;;;5034569;28;20450;-72
2020/12/18 06:26:25;;;;;;;9.23;4.60;;;7.30;89.10;;;;;;5034665;28;20446;-71
2020/12/18 06:28:52;;;;;;;7.27;3.27;;;7.30;89.20;;;;;;5034841;28;20447;-71
2020/12/18 06:31:23;;;;;;;9.97;5.00;;;7.30;89.70;;;;;;5034239;28;20493;-71
2020/12/18 06:33:51;;;;;;;7.97;4.33;;;7.20;90.30;;;;;;5034352;28;20453;-72
2020/12/18 06:36:18;;;;;;;10.10;4.67;;;7.20;90.80;;;;;;5034200;28;20885;-72
2020/12/18 06:38:44;;;;;;;7.47;4.30;;;7.10;91.30;;;;;;5034418;28;20510;-71
2020/12/18 06:41:23;;;;;;;7.20;3.90;;;7.10;91.70;;;;;;5036555;28;20470;-72
2020/12/18 06:43:49;;;;;;;5.73;4.40;;;7.10;91.90;;;;;;5036005;28;20442;-72
2020/12/18 06:46:19;;;;;;;6.07;4.77;;;7.10;92.00;;;;;;5033525;28;20442;-72
2020/12/18 06:48:52;;;;;;;7.67;4.23;;;7.10;92.10;;;;;;5034662;28;20831;-71
2020/12/18 06:51:28;;;;;;;6.63;3.40;;;7.10;92.20;;;;;;5033552;28;20826;-71
2020/12/18 06:54:11;;;;;;;7.20;4.63;;;7.10;92.30;;;;;;5033930;28;20557;-72
2020/12/18 06:56:38;;;;;;;8.83;4.10;;;7.10;92.40;;;;;;5033887;28;20442;-72
2020/12/18 06:59:20;;;;;;;7.00;4.40;;;7.10;92.50;;;;;;5033768;28;20481;-73
2020/12/18 07:01:48;;;;;;;4.20;2.97;;;7.10;92.70;;;;;;5033997;28;20446;-72
2020/12/18 07:04:21;;;;;;;6.43;3.10;;;7.10;92.70;;;;;;5036038;28;20847;-72
2020/12/18 07:06:48;;;;;;;6.03;3.40;;;7.10;92.80;;;;;;5033903;28;20442;-72
2020/12/18 07:09:16;;;;;;;5.27;3.00;;;7.10;92.90;;;;;;5033256;28;20443;-72
2020/12/18 07:11:45;;;;;;;4.80;3.07;;;7.10;93.00;;;;;;5034140;28;20779;-72
2020/12/18 07:14:15;;;;;;;9.23;4.00;;;7.10;93.00;;;;;;5033268;28;20457;-71
2020/12/18 07:16:51;;;;;;;7.83;3.37;;;7.10;93.10;;;;;;5033729;28;20445;-71
2020/12/18 07:19:18;;;;;;;7.07;3.60;;;7.10;93.20;;;;;;5033422;28;21024;-72
2020/12/18 07:21:44;;;;;;;5.10;3.40;;;7.10;93.30;;;;;;5035606;28;20502;-72
2020/12/18 07:24:12;;;;;;;6.37;3.10;;;7.10;93.30;;;;;;5033823;28;20453;-72
2020/12/18 07:26:38;;;;;;;10.33;3.87;;;7.10;93.30;;;;;;5034161;28;20500;-72
2020/12/18 07:29:05;;;;;;;8.50;3.90;;;7.10;93.40;;;;;;5033409;28;20442;-72
2020/12/18 07:31:32;;;;;;;6.43;3.90;;;7.10;93.50;;;;;;5033145;28;20959;-72
2020/12/18 07:34:00;;;;;;;4.33;3.37;;;7.10;93.40;;;;;;5033431;28;20453;-72
2020/12/18 07:36:27;;;;;;;4.73;3.60;;;7.10;93.50;;;;;;5033243;28;20458;-72
2020/12/18 07:38:57;;;;;;;8.30;3.70;;;7.10;93.50;;;;;;5033011;28;20987;-72
2020/12/18 07:41:24;;;;;;;4.73;3.77;;;7.10;93.50;;;;;;5033642;28;20546;-72
2020/12/18 07:43:50;;;;;;;5.33;3.77;;;7.00;93.50;;;;;;5033385;28;20474;-72
2020/12/18 07:46:19;;;;;;;8.80;4.97;;;7.00;93.70;;;;;;5033465;28;20423;-72
2020/12/18 07:48:47;;;;;;;9.50;3.80;;;7.00;93.80;;;;;;5033053;28;20443;-72
2020/12/18 07:51:16;;;;;;;7.23;3.90;;;7.00;93.70;;;;;;5035331;28;20466;-72
2020/12/18 07:53:42;;;;;;;9.17;3.83;;;7.00;93.80;;;;;;5034277;28;20451;-72
2020/12/18 07:56:10;;;;;;;9.20;4.00;;;7.10;93.80;;;;;;5034241;28;20454;-72
2020/12/18 07:58:48;;;;;;;9.70;3.60;;;7.10;93.80;;;;;;5037350;28;20485;-72
2020/12/18 08:01:16;;;;;;;4.87;4.33;;;7.10;93.80;;;;;;5039213;28;20462;-72
2020/12/18 08:03:46;;;;;;;8.40;4.40;;;7.10;93.80;;;;;;5039618;28;20438;-72
2020/12/18 08:06:15;;;;;;;8.03;4.33;;;7.10;93.80;;;;;;5038406;28;20484;-72
2020/12/18 08:08:42;;;;;;;8.50;4.30;;;7.20;93.70;;;;;;5037702;28;20446;-72
2020/12/18 08:11:16;;;;;;;6.33;4.17;;;7.20;93.70;;;;;;5036931;28;20462;-73
2020/12/18 08:13:42;;;;;;;5.23;4.00;;;7.20;93.60;;;;;;5037002;28;20446;-72
2020/12/18 08:16:11;;;;;;;5.40;3.90;;;7.30;93.60;;;;;;5037638;28;20446;-72
2020/12/18 08:18:38;;;;;;;6.93;3.50;;;7.30;93.60;;;;;;5037489;28;20458;-72
2020/12/18 08:21:05;;;;;;;7.50;3.53;;;7.30;93.60;;;;;;5036776;28;20462;-72
2020/12/18 08:23:35;;;;;;;9.40;3.47;;;7.40;93.50;;;;;;5036888;28;20450;-72
2020/12/18 08:26:04;;;;;;;10.00;4.57;;;7.40;93.40;;;;;;5036845;28;20434;-72
2020/12/18 08:28:32;;;;;;;4.60;4.20;;;7.40;93.30;;;;;;5036678;28;20451;-72
2020/12/18 08:31:05;;;;;;;9.27;4.27;;;7.40;93.30;;;;;;5036281;28;20462;-72
2020/12/18 08:33:36;;;;;;;5.83;3.50;;;7.50;93.40;;;;;;5036569;28;20438;-71
2020/12/18 08:36:03;;;;;;;6.90;3.30;;;7.50;93.30;;;;;;5036378;28;20458;-72
2020/12/18 08:38:30;;;;;;;5.40;3.80;;;7.60;93.30;;;;;;5036648;28;20478;-72
2020/12/18 08:40:57;;;;;;;8.10;3.70;;;7.60;93.10;;;;;;5036554;28;20466;-72
2020/12/18 08:43:24;;;;;;;4.50;4.00;;;7.70;93.10;;;;;;5036445;28;20450;-72
2020/12/18 08:45:50;;;;;;;11.13;4.00;;;7.70;93.00;;;;;;5036277;28;20801;-72
2020/12/18 08:48:20;;;;;;;5.77;3.60;;;7.70;93.00;;;;;;5036112;28;20811;-72
2020/12/18 08:50:46;;;;;;;6.10;3.80;;;7.80;93.10;;;;;;5036285;28;20824;-72
2020/12/18 08:53:14;;;;;;;7.33;3.30;;;7.80;93.00;;;;;;5036453;28;20442;-72
2020/12/18 08:55:42;;;;;;;7.67;3.40;;;7.90;93.00;;;;;;5035893;28;20917;-72
2020/12/18 08:58:08;;;;;;;9.33;3.70;;;7.90;93.00;;;;;;5036218;28;20478;-72
2020/12/18 09:00:35;;;;;;;6.57;4.00;;;7.90;93.00;;;;;;5036511;28;20474;-72
2020/12/18 09:03:02;;;;;;;7.80;4.10;;;7.90;93.10;;;;;;5036159;28;20949;-72
2020/12/18 09:05:30;;;;;;;4.60;3.40;;;8.00;93.20;;;;;;5035927;28;20929;-72
2020/12/18 09:07:59;;;;;;;7.03;3.97;;;8.00;93.30;;;;;;5035102;28;20427;-72
2020/12/18 09:10:33;;;;;;;7.07;3.90;;;8.00;93.30;;;;;;5036136;28;20470;-72
2020/12/18 09:13:14;;;;;;;10.00;4.10;;;8.10;93.30;;;;;;5036068;28;20429;-72
2020/12/18 09:15:41;;;;;;;11.23;4.77;;;8.10;93.30;;;;;;5036192;28;20434;-72
2020/12/18 09:18:09;;;;;;;7.33;4.00;;;8.10;93.30;;;;;;5036438;28;20469;-72
2020/12/18 09:20:36;;;;;;;6.90;4.23;;;8.10;93.40;;;;;;5035818;28;20465;-72
2020/12/18 09:23:05;;;;;;;10.83;4.03;;;8.10;93.40;;;;;;5035734;28;20496;-72
2020/12/18 09:25:39;;;;;;;5.67;3.30;;;8.10;93.50;;;;;;5036051;28;20506;-72
2020/12/18 09:28:17;;;;;;;7.97;4.10;;;8.10;93.40;;;;;;5035955;28;20437;-72
2020/12/18 09:30:47;;;;;;;6.40;4.00;;;8.20;93.50;;;;;;5035614;28;20972;-72
2020/12/18 09:33:17;;;;;;;7.43;4.00;;;8.20;93.40;;;;;;5036322;28;20450;-72
2020/12/18 09:35:44;;;;;;;6.77;3.90;;;8.30;93.40;;;;;;5035455;28;20469;-72
2020/12/18 09:38:11;;;;;;;4.10;3.23;;;8.30;93.40;;;;;;5035249;28;21241;-72
2020/12/18 09:40:38;;;;;;;7.63;3.70;;;8.30;93.70;;;;;;5035773;28;20474;-72
2020/12/18 09:43:04;;;;;;;4.47;3.80;;;8.40;93.40;;;;;;5035806;28;20446;-72
2020/12/18 09:45:32;;;;;;;7.10;3.47;;;8.40;93.50;;;;;;5035794;28;20812;-72
2020/12/18 09:47:58;;;;;;;6.53;4.20;;;8.40;93.40;;;;;;5035397;28;20443;-72
2020/12/18 09:50:24;;;;;;;8.17;3.93;;;8.50;93.40;;;;;;5035419;28;20477;-72
2020/12/18 09:52:50;;;;;;;7.90;4.33;;;8.50;93.40;;;;;;5035845;28;20435;-72
2020/12/18 09:55:16;;;;;;;9.23;4.17;;;8.50;93.40;;;;;;5036040;28;20788;-72
2020/12/18 09:57:43;;;;;;;9.00;5.80;;;8.50;93.30;;;;;;5035527;28;20466;-72
2020/12/18 10:00:09;;;;;;;10.60;4.90;;;8.60;93.30;;;;;;5035258;28;20466;-72
2020/12/18 10:02:36;;;;;;;6.07;4.67;;;8.70;93.30;;;;;;5035310;28;20450;-72
2020/12/18 10:05:04;;;;;;;6.73;4.13;;;8.70;93.30;;;;;;5035203;28;20431;-72
2020/12/18 10:07:30;;;;;;;6.33;3.90;;;8.80;93.20;;;;;;5035080;28;20481;-72
2020/12/18 10:09:56;;;;;;;8.00;4.40;;;8.90;93.10;;;;;;5035061;28;20500;-72
2020/12/18 10:12:23;;;;;;;9.63;5.17;;;8.90;93.00;;;;;;5035084;28;20459;-72
2020/12/18 10:14:49;;;;;;;9.80;4.40;;;8.90;93.10;;;;;;5034557;28;20450;-72
2020/12/18 10:17:15;;;;;;;7.77;4.83;;;8.90;93.00;;;;;;5034814;28;20431;-72
2020/12/18 10:19:42;;;;;;;5.00;4.27;;;8.90;93.10;;;;;;5034490;28;20836;-72
2020/12/18 10:22:09;;;;;;;5.90;3.53;;;9.00;93.10;;;;;;5034628;28;20457;-72
2020/12/18 10:24:35;;;;;;;6.63;4.30;;;9.10;93.00;;;;;;5034568;28;20446;-72
2020/12/18 10:27:01;;;;;;;7.10;5.30;;;9.20;92.90;;;;;;5034599;28;20488;-72
2020/12/18 10:29:27;;;;;;;7.83;4.67;;;9.20;92.80;;;;;;5034733;28;20463;-72
2020/12/18 10:31:55;;;;;;;8.77;5.30;;;9.40;92.60;;;;;;5034642;28;20453;-72
2020/12/18 10:34:21;;;;;;;9.33;5.33;;;9.40;92.40;;;;;;5034401;28;21010;-72
2020/12/18 10:36:52;;;;;;;7.40;5.03;;;9.50;92.40;;;;;;5034496;28;20461;-72
2020/12/18 10:39:19;;;;;;;8.83;4.30;;;9.60;92.40;;;;;;5034308;28;20532;-73
2020/12/18 10:41:45;;;;;;;5.20;3.90;;;9.70;92.30;;;;;;5035397;28;20458;-72
2020/12/18 10:44:11;;;;;;;6.47;4.17;;;9.80;92.00;;;;;;5034596;28;20458;-72
2020/12/18 10:46:40;;;;;;;8.70;4.60;;;9.90;91.90;;;;;;5034643;28;20552;-72
2020/12/18 10:49:07;;;;;;;8.50;4.10;;;10.00;91.20;;;;;;5034140;28;21003;-72
2020/12/18 10:51:37;;;;;;;7.70;3.90;;;10.10;91.10;;;;;;5034346;28;20533;-72
2020/12/18 10:54:04;;;;;;;5.27;4.20;;;10.20;90.90;;;;;;5034431;28;20815;-71
2020/12/18 10:56:31;;;;;;;13.77;4.90;;;10.30;90.50;;;;;;5034103;28;20438;-72
2020/12/18 10:58:57;;;;;;;5.83;4.23;;;10.40;90.40;;;;;;5034260;28;20478;-72
2020/12/18 11:01:23;;;;;;;8.57;4.70;;;10.50;90.30;;;;;;5034400;28;20475;-72
2020/12/18 11:03:49;;;;;;;6.43;4.47;;;10.50;90.10;;;;;;5034733;28;20430;-72
2020/12/18 11:06:16;;;;;;;7.73;4.37;;;10.60;90.20;;;;;;5033742;28;20442;-72
2020/12/18 11:08:42;;;;;;;8.53;4.73;;;10.70;89.70;;;;;;5033933;28;20446;-73
2020/12/18 11:11:13;;;;;;;5.90;4.00;;;10.80;88.70;;;;;;5034049;28;20466;-72
2020/12/18 11:13:39;;;;;;;5.47;3.50;;;11.00;88.90;;;;;;5033942;28;20477;-72
2020/12/18 11:16:06;;;;;;;4.40;3.60;;;11.20;87.70;;;;;;5034185;28;20504;-72
2020/12/18 11:18:34;;;;;;;4.60;3.57;;;11.50;86.70;;;;;;5033891;28;20500;-73
2020/12/18 11:21:04;;;;;;;4.70;3.00;;;11.80;85.30;;;;;;5034079;28;20517;-72
2020/12/18 11:23:30;;;;;;;6.60;3.97;;;12.00;82.80;;;;;;5034705;28;20480;-72
2020/12/18 11:25:56;;;;;;;9.20;5.80;;;12.30;81.70;;;;;;5033901;28;20439;-73
2020/12/18 11:28:23;;;;;;;4.37;3.30;;;12.60;80.40;;;;;;5034075;28;20419;-72
2020/12/18 11:30:50;;;;;;;4.90;3.73;;;12.80;79.30;;;;;;5032997;28;20462;-72
2020/12/18 11:33:16;;;;;;;3.83;3.23;;;13.10;77.90;;;;;;5033961;28;20438;-72
2020/12/18 11:35:44;;;;;;;5.57;3.17;;;13.30;76.70;;;;;;5033616;28;20967;-73
2020/12/18 11:38:11;;;;;;;6.50;2.90;;;13.50;74.70;;;;;;5034099;28;20472;-72
2020/12/18 11:40:37;;;;;;;7.73;3.57;;;13.70;74.40;;;;;;5033344;28;20478;-72
2020/12/18 11:43:04;;;;;;;3.70;2.60;;;13.80;73.20;;;;;;5033496;28;20513;-75
2020/12/18 11:45:32;;;;;;;3.23;2.67;;;14.00;71.90;;;;;;5033438;28;20434;-72
2020/12/18 11:47:58;;;;;;;6.43;2.63;;;14.10;71.10;;;;;;5033332;28;20426;-72
2020/12/18 11:50:25;;;;;;;3.23;2.93;;;14.30;70.80;;;;;;5033368;28;20467;-72
2020/12/18 11:52:51;;;;;;;5.50;3.13;;;14.60;69.60;;;;;;5033628;28;20437;-72
2020/12/18 11:55:17;;;;;;;4.83;2.60;;;14.70;68.30;;;;;;5033126;28;20967;-72
2020/12/18 11:57:44;;;;;;;3.93;2.47;;;14.80;67.80;;;;;;5033348;28;20522;-72
2020/12/18 12:00:10;;;;;;;3.50;2.60;;;15.00;67.20;;;;;;5033420;28;20516;-72
2020/12/18 12:02:37;;;;;;;4.30;2.50;;;15.10;66.60;;;;;;5033103;28;20901;-72
2020/12/18 12:05:03;;;;;;;3.17;2.33;;;15.20;65.30;;;;;;5033189;28;20435;-72
2020/12/18 12:07:30;;;;;;;5.13;2.40;;;15.30;65.50;;;;;;5033420;28;20431;-72
2020/12/18 12:09:57;;;;;;;5.67;2.40;;;15.50;64.70;;;;;;5034246;28;20477;-73
2020/12/18 12:12:24;;;;;;;6.53;2.47;;;15.60;63.30;;;;;;5033807;28;20477;-73
2020/12/18 12:14:50;;;;;;;3.30;2.20;;;15.80;63.20;;;;;;5034502;28;20431;-73
2020/12/18 12:17:17;;;;;;;4.37;1.93;;;15.90;61.90;;;;;;5034335;28;20432;-73
2020/12/18 12:19:44;;;;;;;2.60;2.00;;;16.00;61.20;;;;;;5033851;28;20549;-73
2020/12/18 12:22:10;;;;;;;1.87;1.60;;;16.00;60.30;;;;;;5034438;28;20430;-73
2020/12/18 12:24:42;;;;;;;5.00;2.17;;;16.10;60.80;;;;;;5034058;28;20431;-73
2020/12/18 12:27:09;;;;;;;6.80;2.57;;;16.20;60.50;;;;;;5034198;28;20435;-73
2020/12/18 12:29:35;;;;;;;2.00;1.40;;;16.40;59.70;;;;;;5033711;28;20898;-73
2020/12/18 12:32:02;;;;;;;4.30;2.30;;;16.50;59.20;;;;;;5033604;28;20430;-73
2020/12/18 12:34:28;;;;;;;2.50;1.73;;;16.60;59.00;;;;;;5032956;28;20480;-73
2020/12/18 12:36:57;;;;;;;3.23;1.93;;;16.70;58.80;;;;;;5032720;28;20462;-72
2020/12/18 12:39:23;;;;;;;4.00;2.53;;;16.70;58.30;;;;;;5032722;28;20465;-73
2020/12/18 12:41:50;;;;;;;1.87;1.67;;;16.60;57.90;;;;;;5033065;28;20605;-73
2020/12/18 12:44:16;;;;;;;3.47;2.03;;;16.70;58.70;;;;;;5034998;28;20450;-72
2020/12/18 12:46:42;;;;;;;2.23;1.83;;;16.60;58.00;;;;;;5037480;28;20442;-72
2020/12/18 12:49:09;;;;;;;1.63;1.53;;;16.60;58.10;;;;;;5037068;28;20425;-74
2020/12/18 12:51:35;;;;;;;4.00;1.67;;;16.70;58.10;;;;;;5036631;28;20465;-73
2020/12/18 12:54:02;;;;;;;2.13;1.50;;;16.80;58.00;;;;;;5036314;28;20512;-73
2020/12/18 12:56:29;;;;;;;1.57;1.47;;;16.90;57.60;;;;;;5036299;28;20431;-73